• Join FlightAware (Why Join?)
  • Login
  • US Flag 
02:37AM EDT


 

Airport Tracker/Info


-or-


 

Live Flight TrackerFlight Track Log ✈ ASQ6041 ✈ 16-Apr-2013 ✈ KBHM - KORD

Flight Track Log - Related Links

Times and Time Zones

All times are in EDT time to prevent confusion due to time zone crossing. See the ASQ6041 flight status page for this flight to view local times or setup timezone preferences in your user account.

Time Position Orientation Groundspeed Altitude Reporting Facility
EDT Latitude Longitude Course Direction KTS MPH feet Rate Location/Type
07:06AM 33.5703 -86.7464 52° Northeast 170 196 1,300  Level Atlanta Center
07:07AM 33.5942 -86.7097 52° Northeast 198 228 2,700 1,920 Climbing Atlanta Center
07:08AM 33.6814 -86.7250 352° North 240 276 6,000 2,160 Climbing Atlanta Center
07:10AM 33.7511 -86.8347 307° West 251 289 9,700 1,740 Climbing Memphis Center
07:11AM 33.7892 -86.9231 297° West 270 311 10,600 1,200 Climbing Memphis Center
07:12AM 33.8436 -87.0108 307° West 306 352 12,100 1,500 Climbing Memphis Center
07:13AM 33.9067 -87.0986 311° West 330 380 13,600 1,440 Climbing Memphis Center
07:14AM 33.9511 -87.2044 297° West 342 394 15,000 1,440 Climbing Memphis Center
07:15AM 33.9914 -87.3108 295° West 342 394 16,500 1,380 Climbing Memphis Center
07:16AM 34.0331 -87.3994 300° West 342 394 17,800 1,140 Climbing Memphis Center
07:17AM 34.0731 -87.5036 295° West 342 394 18,800 1,140 Climbing Memphis Center
07:18AM 34.1150 -87.6100 295° West 337 388 20,100 1,260 Climbing Memphis Center
07:19AM 34.1528 -87.7167 293° West 342 394 21,400 1,200 Climbing Memphis Center
07:20AM 34.1989 -87.8258 297° West 356 410 22,600 1,200 Climbing Memphis Center
07:21AM 34.2431 -87.9350 296° West 356 410 23,900 1,260 Climbing Memphis Center
07:22AM 34.2825 -88.0469 293° West 356 410 25,200 1,260 Climbing Memphis Center
07:23AM 34.3286 -88.1664 295° West 356 410 26,500 1,200 Climbing Memphis Center
07:24AM 34.3658 -88.2711 293° West 362 417 27,600 1,200 Climbing Memphis Center
07:25AM 34.4094 -88.3783 296° West 362 417 28,900 1,260 Climbing Memphis Center
07:26AM 34.4650 -88.4753 305° West 356 410 30,200 1,200 Climbing Memphis Center
07:27AM 34.5250 -88.5672 308° West 351 404 31,300 1,020 Climbing Memphis Center
07:28AM 34.5869 -88.6669 307° West 358 412 32,300 1,020 Climbing Memphis Center
07:29AM 34.6528 -88.7692 308° West 358 412 33,400 1,020 Climbing Memphis Center
07:30AM 34.7189 -88.8689 309° West 368 423 34,400 960 Climbing Memphis Center
07:31AM 34.7825 -88.9714 307° West 368 423 35,400 780 Climbing Memphis Center
07:32AM 34.8442 -89.0717 307° West 368 423 36,000 300 Climbing Memphis Center
07:33AM 34.9033 -89.1594 309° West 373 429 36,000  Level Memphis Center
07:34AM 34.9711 -89.2700 307° West 390 449 36,000  Level Memphis Center
07:35AM 35.0389 -89.3781 307° West 397 457 36,000  Level Memphis Center
07:36AM 35.1086 -89.4864 308° West 402 463 36,000  Level Memphis Center
07:37AM 35.1739 -89.5950 306° West 402 463 36,000  Level Memphis Center
07:38AM 35.2392 -89.7011 307° West 402 463 36,000  Level Memphis Center
07:39AM 35.3044 -89.8075 307° West 402 463 36,000  Level Memphis Center
07:40AM 35.3694 -89.9139 307° West 402 463 36,000  Level Memphis Center
07:41AM 35.4636 -89.9822 329° Northwest 387 445 36,000  Level Memphis Center
07:42AM 35.5764 -90.0175 346° North 392 451 36,000  Level Memphis Center
07:43AM 35.6869 -90.0503 346° North 407 468 36,000  Level Memphis Center
07:44AM 35.8058 -90.0908 345° North 402 463 36,000  Level Memphis Center
07:45AM 35.9206 -90.1211 348° North 407 468 36,000  Level Memphis Center
07:46AM 36.0394 -90.1336 355° North 418 481 36,000  Level Memphis Center
07:47AM 36.1647 -90.1281 North 426 490 36,000  Level Memphis Center
07:48AM 36.2875 -90.1228 North 437 503 36,000  Level Memphis Center
07:49AM 36.4106 -90.1222 360° North 437 503 36,000  Level Memphis Center
07:50AM 36.5211 -90.1606 344° North 423 487 36,000  Level Memphis Center
07:51AM 36.6317 -90.2017 343° North 423 487 36,000  Level Memphis Center
07:52AM 36.7442 -90.2403 345° North 417 480 36,000  Level Memphis Center
07:54AM 36.9897 -90.3258 344° North 414 476 36,000  Level Kansas City Center
07:55AM 37.1017 -90.3669 344° North 417 480 36,000  Level Kansas City Center
07:56AM 37.2156 -90.4083 344° North 423 487 36,000  Level Kansas City Center
07:57AM 37.3294 -90.4508 343° North 425 489 36,000  Level Kansas City Center
07:58AM 37.4358 -90.4903 344° North 426 490 36,000  Level Kansas City Center
07:59AM 37.5494 -90.5336 343° North 426 490 36,000  Level Kansas City Center
08:00AM 37.6633 -90.5758 344° North 426 490 36,000  Level Kansas City Center
08:01AM 37.8000 -90.6281 343° North 426 490 36,000  Level Kansas City Center
08:02AM 37.9142 -90.6717 343° North 427 491 36,000  Level Kansas City Center
08:03AM 38.0275 -90.7153 343° North 425 489 36,000  Level Kansas City Center
08:04AM 38.1411 -90.7578 344° North 425 489 36,000  Level Kansas City Center
08:05AM 38.2558 -90.8019 343° North 427 491 36,000  Level Kansas City Center
08:06AM 38.3700 -90.8464 343° North 428 493 36,000  Level Kansas City Center
08:07AM 38.4847 -90.8900 343° North 427 491 36,000  Level Kansas City Center
08:08AM 38.5992 -90.9350 343° North 427 491 36,000  Level Kansas City Center
08:09AM 38.7139 -90.9758 344° North 426 490 36,000  Level Kansas City Center
08:10AM 38.8289 -91.0186 344° North 426 490 36,000  Level Kansas City Center
08:11AM 38.9439 -91.0597 344° North 427 491 36,000  Level Kansas City Center
08:12AM 39.0581 -91.1006 344° North 426 490 36,000 -480 Level Kansas City Center
08:13AM 39.1814 -91.0792 North 453 521 35,100 -480 Descending Kansas City Center
08:14AM 39.3000 -90.9958 29° Northeast 480 552 35,000 -60 Descending Kansas City Center
08:16AM 39.4367 -90.8933 30° Northeast 475 547 35,000  Level Kansas City Center
08:17AM 39.5494 -90.8114 29° Northeast 467 537 35,000  Level Kansas City Center
08:18AM 39.6628 -90.7278 30° Northeast 467 537 35,000  Level Kansas City Center
08:19AM 39.7611 -90.6544 30° Northeast 467 537 35,000 -360 Level Kansas City Center
08:20AM 39.8983 -90.5536 29° Northeast 470 541 34,300 -840 Descending Kansas City Center
08:21AM 40.0142 -90.4658 30° Northeast 479 551 33,300 -660 Descending Kansas City Center
08:22AM 40.1319 -90.3772 30° Northeast 485 558 33,000 -180 Descending Kansas City Center
08:22AM 40.2006 -90.3244 30° Northeast 485 558 33,000  Level Chicago Center
08:23AM 40.3175 -90.2364 30° Northeast 484 557 33,000 -480 Level Chicago Center
08:24AM 40.4286 -90.1517 30° Northeast 467 537 32,100 -960 Descending Chicago Center
08:25AM 40.5453 -90.0633 30° Northeast 454 522 31,100 -960 Descending Chicago Center
08:26AM 40.6583 -90.0031 22° Northeast 443 510 30,200 -1,020 Descending Chicago Center
08:27AM 40.8006 -89.9656 11° North 436 502 29,100 -1,080 Descending Chicago Center
08:28AM 40.9083 -89.9083 22° Northeast 435 501 28,100 -1,620 Descending Chicago Center
08:29AM 41.0081 -89.7856 43° Northeast 472 543 25,900 -2,040 Descending Chicago Center
08:31AM 41.0919 -89.6367 53° Northeast 496 571 24,000 -960 Descending Chicago Center
08:32AM 41.1644 -89.4772 59° Northeast 501 577 24,000 -960 Level Chicago Center
08:33AM 41.2364 -89.3233 58° Northeast 492 566 22,100 -2,760 Descending Chicago Center
08:34AM 41.3119 -89.1511 60° Northeast 474 545 18,300 -3,120 Descending Chicago Center
08:35AM 41.3761 -89.0117 58° Northeast 450 518 15,700 -2,580 Descending Chicago Center
08:36AM 41.4367 -88.8778 59° Northeast 428 493 13,000 -2,280 Descending Chicago Center
08:37AM 41.4947 -88.7469 59° Northeast 415 478 11,000 -960 Descending Chicago Center
08:38AM 41.5494 -88.6133 61° Northeast 411 473 11,100  Climbing Chicago Center
08:39AM 41.6028 -88.4794 62° Northeast 409 471 11,000 -60 Descending Chicago Center
08:40AM 41.6844 -88.3356 53° Northeast 403 464 11,000  Level Chicago Center
08:41AM 41.7533 -88.2175 52° Northeast 402 463 11,000 -420 Level Chicago Center
08:42AM 41.8164 -88.1100 52° Northeast 362 417 10,200 -1,080 Descending Chicago Center
08:43AM 41.8581 -88.0028 62° Northeast 329 379 8,800 -1,380 Descending Chicago Center
08:44AM 41.8719 -87.8894 81° East 310 357 7,400 -1,200 Descending Chicago Center
08:44AM 41.8833 -87.8500 69° East 273 314 7,200 -1,020 Descending Chicago TRACON
08:45AM 41.8833 -87.7667 90° East 249 287 6,100 -1,200 Descending Chicago TRACON
08:47AM 41.9200 -87.6458 68° East 247 284 4,000 -1,020 Descending Chicago Center
08:48AM 41.9558 -87.7217 302° West 219 252 3,300 -840 Descending Chicago Center
08:49AM 41.9689 -87.7886 285° West 201 231 2,300 -1,020 Descending Chicago Center
08:50AM 41.9700 -87.8408 272° West 168 193 1,300 -540 Descending Chicago Center
08:51AM 41.9708 -87.8906 271° West 162 186 1,200 -120 Descending Chicago Center
08:53AM 41.9667 -87.9000 283° West  Level FlightAware Approximate